Time;durP1;ratioP1;P1;durP2;ratioP2;P2;SDS_P1;SDS_P2;PMS_P1;PMS_P2;Temp;Humidity;BMP_temperature;BMP_pressure;BME280_temperature;BME280_humidity;BME280_pressure;Samples;Min_cycle;Max_cycle;Signal;HPM_P1;HPM_P2
2024/01/22 00:00:13;;;;;;;8.88;3.47;;;;;;;6.67;49.91;101495.63;5043477;28;20501;-45
2024/01/22 00:02:38;;;;;;;6.32;3.45;;;;;;;6.67;50.43;101483.44;5045179;28;20040;-44
2024/01/22 00:05:04;;;;;;;11.35;4.22;;;;;;;6.70;50.36;101488.59;5043228;28;20021;-44
2024/01/22 00:07:29;;;;;;;6.95;3.53;;;;;;;6.71;50.44;101485.06;5043688;28;20038;-45
2024/01/22 00:09:55;;;;;;;8.95;3.85;;;;;;;6.75;50.30;101469.25;5036404;28;20082;-44
2024/01/22 00:12:20;;;;;;;8.25;3.45;;;;;;;6.65;50.49;101469.53;5046271;28;20037;-44
2024/01/22 00:14:47;;;;;;;5.05;3.22;;;;;;;6.68;50.30;101464.22;5049330;28;20072;-44
2024/01/22 00:17:13;;;;;;;7.90;3.17;;;;;;;6.70;50.43;101459.81;5046589;28;20041;-45
2024/01/22 00:19:38;;;;;;;6.20;3.25;;;;;;;6.75;50.67;101453.56;5039740;28;20032;-46
2024/01/22 00:22:03;;;;;;;10.23;4.10;;;;;;;6.78;50.82;101443.00;5029166;28;20041;-45
2024/01/22 00:24:29;;;;;;;6.43;3.53;;;;;;;6.75;50.59;101441.34;5041526;28;20453;-43
2024/01/22 00:26:54;;;;;;;7.97;3.63;;;;;;;6.75;50.96;101427.41;5044278;28;20056;-45
2024/01/22 00:29:19;;;;;;;7.50;3.37;;;;;;;6.72;50.80;101433.59;5035028;28;20127;-48
2024/01/22 00:31:44;;;;;;;8.98;3.50;;;;;;;6.76;50.79;101423.88;5042272;28;20842;-44
2024/01/22 00:34:10;;;;;;;12.30;3.97;;;;;;;6.76;50.89;101413.44;5043684;28;20116;-39
2024/01/22 00:36:35;;;;;;;9.63;3.47;;;;;;;6.73;50.97;101410.94;5037881;28;20119;-38
2024/01/22 00:39:00;;;;;;;6.40;3.28;;;;;;;6.75;51.13;101411.72;5041146;28;20037;-39
2024/01/22 00:41:26;;;;;;;8.65;3.40;;;;;;;6.76;51.09;101396.00;5038410;28;20043;-39
2024/01/22 00:43:51;;;;;;;6.67;3.17;;;;;;;6.80;51.00;101388.91;5038365;28;20029;-37
2024/01/22 00:46:16;;;;;;;9.48;4.03;;;;;;;6.74;51.54;101381.22;5040340;28;20327;-39
2024/01/22 00:48:41;;;;;;;6.97;3.30;;;;;;;6.77;51.53;101373.28;5043691;28;20059;-39
2024/01/22 00:51:07;;;;;;;9.90;4.10;;;;;;;6.73;51.59;101366.47;5048219;28;20027;-39
2024/01/22 00:53:32;;;;;;;9.63;3.22;;;;;;;6.70;51.33;101359.56;5046944;28;20552;-38
2024/01/22 00:55:58;;;;;;;7.75;3.28;;;;;;;6.69;51.61;101360.44;5044442;28;20037;-39
2024/01/22 00:58:23;;;;;;;7.60;4.00;;;;;;;6.70;51.20;101357.81;5045293;28;20029;-38
2024/01/22 01:00:48;;;;;;;5.47;3.40;;;;;;;6.67;51.63;101354.41;5043959;28;20323;-40
2024/01/22 01:03:13;;;;;;;7.65;4.03;;;;;;;6.67;51.91;101355.28;5041692;28;20372;-39
2024/01/22 01:05:39;;;;;;;8.63;3.90;;;;;;;6.68;52.00;101348.28;5044494;28;20403;-39
2024/01/22 01:08:04;;;;;;;6.53;3.15;;;;;;;6.69;52.05;101335.16;5041197;28;20044;-39
2024/01/22 01:10:30;;;;;;;12.40;3.70;;;;;;;6.64;51.71;101325.75;5043602;28;20075;-39
2024/01/22 01:12:55;;;;;;;4.78;3.13;;;;;;;6.61;52.46;101316.25;5026668;28;20070;-38
2024/01/22 01:15:22;;;;;;;8.38;3.85;;;;;;;6.63;52.39;101321.44;5043430;28;20025;-38
2024/01/22 01:17:47;;;;;;;8.88;3.78;;;;;;;6.59;52.75;101344.19;5040846;28;20030;-39
2024/01/22 01:20:12;;;;;;;9.68;4.15;;;;;;;6.52;53.39;101337.47;5043029;28;20941;-39
2024/01/22 01:22:37;;;;;;;6.38;3.30;;;;;;;6.53;53.45;101331.31;5043474;28;20057;-39
2024/01/22 01:25:03;;;;;;;9.17;3.17;;;;;;;6.50;53.22;101319.22;5044043;28;20077;-40
2024/01/22 01:27:29;;;;;;;8.48;3.95;;;;;;;6.57;53.21;101306.81;5044796;28;20285;-39
2024/01/22 01:29:55;;;;;;;6.43;3.65;;;;;;;6.55;53.16;101287.69;5040425;28;20491;-39
2024/01/22 01:32:21;;;;;;;9.43;3.08;;;;;;;6.61;53.40;101291.88;5041372;28;20036;-39
2024/01/22 01:34:46;;;;;;;7.30;3.55;;;;;;;6.62;53.30;101291.81;5044136;28;20033;-39
2024/01/22 01:37:11;;;;;;;13.05;4.03;;;;;;;6.67;53.57;101286.41;5043180;28;20033;-39
2024/01/22 01:39:36;;;;;;;11.20;3.73;;;;;;;6.62;53.71;101270.88;5060231;28;20614;-39
2024/01/22 01:42:02;;;;;;;9.40;4.25;;;;;;;6.66;53.73;101264.66;5042088;28;20279;-39
2024/01/22 01:44:47;;;;;;;4.28;2.95;;;;;;;6.61;53.68;101252.63;5046890;28;20041;-39
2024/01/22 01:47:13;;;;;;;5.10;2.78;;;;;;;6.61;53.67;101248.25;5043789;28;20496;-39
2024/01/22 01:49:38;;;;;;;7.18;3.78;;;;;;;6.59;53.99;101247.44;5036655;28;20044;-39
2024/01/22 01:52:04;;;;;;;6.57;3.20;;;;;;;6.55;54.13;101243.25;5045264;28;20040;-39
2024/01/22 01:54:29;;;;;;;8.23;3.17;;;;;;;6.68;53.64;101244.53;5040756;28;20142;-39
2024/01/22 01:56:55;;;;;;;9.05;3.22;;;;;;;6.66;54.01;101229.78;5040692;28;20438;-39
2024/01/22 01:59:20;;;;;;;8.05;3.10;;;;;;;6.66;53.88;101237.63;5027143;28;20036;-39
2024/01/22 02:01:46;;;;;;;5.28;2.85;;;;;;;6.64;53.72;101237.69;5048026;28;20037;-38
2024/01/22 02:04:11;;;;;;;4.35;2.38;;;;;;;6.58;53.82;101231.81;5055462;28;20112;-39
2024/01/22 02:06:36;;;;;;;4.53;2.67;;;;;;;6.60;53.88;101217.78;5043878;28;20052;-39
2024/01/22 02:09:02;;;;;;;4.25;2.22;;;;;;;6.71;53.51;101205.22;5041432;28;20044;-39
2024/01/22 02:11:27;;;;;;;10.95;3.22;;;;;;;6.64;53.60;101216.78;5043168;28;20060;-38
2024/01/22 02:13:56;;;;;;;11.30;3.60;;;;;;;6.74;53.76;101203.38;5049772;28;20029;-39
2024/01/22 02:16:21;;;;;;;8.50;3.20;;;;;;;6.81;53.52;101204.88;5048278;28;20028;-39
2024/01/22 02:18:47;;;;;;;5.63;3.10;;;;;;;6.89;53.41;101200.22;5042908;28;20043;-39
2024/01/22 02:21:14;;;;;;;6.78;3.10;;;;;;;6.86;53.28;101192.50;5048281;28;20036;-38
2024/01/22 02:23:39;;;;;;;4.68;2.92;;;;;;;6.96;52.86;101200.88;5044684;28;20090;-39
2024/01/22 02:26:04;;;;;;;4.15;2.50;;;;;;;6.94;53.22;101193.06;5047536;28;20040;-38
2024/01/22 02:28:31;;;;;;;5.50;2.28;;;;;;;6.90;53.18;101186.25;5042742;28;20051;-39
2024/01/22 02:30:56;;;;;;;5.28;2.60;;;;;;;6.95;52.78;101176.47;5029361;28;20123;-39
2024/01/22 02:33:22;;;;;;;5.68;2.53;;;;;;;6.89;53.16;101170.59;5033810;28;20509;-38
2024/01/22 02:35:47;;;;;;;7.05;3.22;;;;;;;6.98;53.19;101162.41;5049216;28;20052;-39
2024/01/22 02:38:12;;;;;;;3.22;2.15;;;;;;;6.99;53.17;101154.53;5045313;28;20040;-39
2024/01/22 02:40:38;;;;;;;5.22;2.53;;;;;;;6.97;53.04;101151.13;5043301;28;20044;-39
2024/01/22 02:43:03;;;;;;;6.57;3.50;;;;;;;7.01;53.02;101144.00;5043596;28;20041;-39
2024/01/22 02:45:28;;;;;;;6.15;2.60;;;;;;;6.96;53.01;101138.94;5027304;28;20499;-39
2024/01/22 02:47:54;;;;;;;7.35;4.13;;;;;;;7.06;52.61;101126.38;5048417;28;20112;-39
2024/01/22 02:50:19;;;;;;;5.05;2.85;;;;;;;7.01;53.20;101150.09;5040403;28;20033;-39
2024/01/22 02:52:44;;;;;;;3.20;1.97;;;;;;;7.03;52.89;101149.19;5043262;28;20036;-39
2024/01/22 02:55:09;;;;;;;8.82;2.63;;;;;;;6.99;53.41;101125.75;5021150;28;20291;-38
2024/01/22 02:57:35;;;;;;;6.67;2.83;;;;;;;7.02;52.87;101132.63;5039380;28;20440;-44
2024/01/22 03:00:00;;;;;;;6.88;3.00;;;;;;;7.07;53.07;101135.06;5046520;28;20286;-47
2024/01/22 03:02:25;;;;;;;10.70;3.25;;;;;;;6.98;52.68;101131.91;5046340;28;20041;-44
2024/01/22 03:04:50;;;;;;;6.80;3.08;;;;;;;6.99;53.15;101115.28;5043378;28;20033;-44
2024/01/22 03:07:16;;;;;;;4.03;2.65;;;;;;;6.97;53.46;101119.72;5048768;28;20055;-43
2024/01/22 03:09:41;;;;;;;5.05;2.75;;;;;;;7.03;53.08;101133.50;5043320;28;20083;-47
2024/01/22 03:12:06;;;;;;;5.47;2.70;;;;;;;6.96;53.31;101123.25;5043764;28;20037;-43
2024/01/22 03:14:32;;;;;;;8.55;2.85;;;;;;;7.03;53.03;101104.72;5044495;28;21028;-46
2024/01/22 03:16:57;;;;;;;3.03;1.90;;;;;;;7.07;53.27;101119.38;5043846;28;20029;-45
2024/01/22 03:19:22;;;;;;;3.40;2.13;;;;;;;7.07;53.44;101112.38;5047987;28;20859;-43
2024/01/22 03:21:47;;;;;;;5.50;2.53;;;;;;;7.19;52.96;101107.59;5040505;28;20036;-45
2024/01/22 03:24:13;;;;;;;12.25;3.28;;;;;;;7.15;53.14;101101.63;5042131;28;20283;-43
2024/01/22 03:26:38;;;;;;;7.40;3.85;;;;;;;7.17;53.37;101105.06;5042701;28;20431;-45
2024/01/22 03:29:03;;;;;;;8.20;2.55;;;;;;;7.21;52.97;101095.31;5043236;28;20049;-45
2024/01/22 03:31:29;;;;;;;3.97;2.30;;;;;;;7.23;52.98;101093.50;5041143;28;20025;-45
2024/01/22 03:33:55;;;;;;;5.45;2.30;;;;;;;7.20;53.01;101093.59;5052334;28;20283;-45
2024/01/22 03:36:22;;;;;;;4.00;2.33;;;;;;;7.30;53.22;101072.25;5043444;28;20069;-43
2024/01/22 03:38:47;;;;;;;5.07;2.00;;;;;;;7.25;53.42;101071.56;5046665;28;20056;-43
2024/01/22 03:41:13;;;;;;;4.28;2.33;;;;;;;7.22;52.94;101055.97;5040370;28;20193;-43
2024/01/22 03:43:40;;;;;;;6.47;2.65;;;;;;;7.24;53.40;101051.53;5045571;28;20056;-45
2024/01/22 03:46:05;;;;;;;8.25;2.55;;;;;;;7.30;53.22;101047.81;5042163;28;20590;-44
2024/01/22 03:48:30;;;;;;;5.90;2.90;;;;;;;7.21;53.74;101045.59;5042069;28;20136;-43
2024/01/22 03:50:55;;;;;;;7.70;2.63;;;;;;;7.29;53.57;101057.47;5043017;28;20936;-43
2024/01/22 03:53:21;;;;;;;4.60;2.23;;;;;;;7.30;53.74;101055.69;5043868;28;20025;-43
2024/01/22 03:55:46;;;;;;;4.53;2.70;;;;;;;7.36;53.60;101051.97;5048826;28;20382;-43
2024/01/22 03:58:11;;;;;;;9.00;3.15;;;;;;;7.35;53.34;101045.91;5049064;28;20317;-44
2024/01/22 04:00:37;;;;;;;3.33;2.25;;;;;;;7.33;53.55;101051.16;5041083;28;20407;-44
2024/01/22 04:03:03;;;;;;;7.43;3.38;;;;;;;7.29;53.91;101046.13;5043317;28;20051;-43
2024/01/22 04:05:28;;;;;;;5.75;2.08;;;;;;;7.35;53.87;101042.41;5040350;28;20514;-44
2024/01/22 04:07:53;;;;;;;6.03;3.20;;;;;;;7.32;53.75;101025.06;5043205;28;20035;-46
2024/01/22 04:10:18;;;;;;;9.93;3.30;;;;;;;7.37;53.94;101032.72;5042666;28;20032;-43
2024/01/22 04:12:44;;;;;;;4.55;2.42;;;;;;;7.37;54.02;101027.50;5049917;28;20032;-45
2024/01/22 04:15:09;;;;;;;11.53;2.30;;;;;;;7.37;54.13;101009.16;5028108;28;20419;-46
2024/01/22 04:17:34;;;;;;;4.73;2.40;;;;;;;7.43;53.90;101022.88;5029207;28;20271;-46
2024/01/22 04:20:00;;;;;;;4.90;3.00;;;;;;;7.45;53.97;101015.81;5040252;28;20341;-45
2024/01/22 04:22:25;;;;;;;7.22;2.92;;;;;;;7.41;54.10;101002.91;5043280;28;20513;-46
2024/01/22 04:24:50;;;;;;;4.87;2.70;;;;;;;7.51;53.86;101011.25;5044510;28;20032;-45
2024/01/22 04:27:17;;;;;;;5.40;2.70;;;;;;;7.47;54.05;101018.38;5045027;28;20325;-44
2024/01/22 04:29:42;;;;;;;7.35;2.75;;;;;;;7.51;54.11;101004.22;5045429;28;20028;-44
2024/01/22 04:32:08;;;;;;;5.47;2.10;;;;;;;7.49;54.11;101016.53;5044430;28;20032;-45
2024/01/22 04:34:35;;;;;;;5.00;3.10;;;;;;;7.50;54.35;101028.69;5042160;28;20623;-43
2024/01/22 04:37:00;;;;;;;4.95;2.15;;;;;;;7.43;54.85;101032.50;5039283;28;20083;-46
2024/01/22 04:39:26;;;;;;;4.07;2.60;;;;;;;7.49;55.14;101008.66;5042677;28;20048;-42
2024/01/22 04:41:51;;;;;;;4.45;3.05;;;;;;;7.55;55.13;100995.34;5051342;28;20305;-44
2024/01/22 04:44:16;;;;;;;6.45;2.65;;;;;;;7.62;55.01;100982.84;5038070;28;20048;-46
2024/01/22 04:46:42;;;;;;;14.02;3.13;;;;;;;7.65;55.39;100974.00;5044267;28;20036;-44
2024/01/22 04:49:08;;;;;;;5.22;2.58;;;;;;;7.69;55.12;100944.16;5040117;28;20415;-43
2024/01/22 04:51:34;;;;;;;4.30;2.22;;;;;;;7.70;54.90;100914.41;5042372;28;20071;-44
2024/01/22 04:53:59;;;;;;;6.30;3.10;;;;;;;7.67;55.45;100893.59;5038246;28;20903;-47
2024/01/22 04:56:24;;;;;;;8.80;2.70;;;;;;;7.67;55.52;100922.41;5044487;28;20029;-44
2024/01/22 04:58:49;;;;;;;4.78;2.03;;;;;;;7.62;55.75;100938.31;5059439;28;20459;-43
2024/01/22 05:01:14;;;;;;;6.70;2.80;;;;;;;7.66;55.62;100920.69;5042254;28;20022;-43
2024/01/22 05:03:40;;;;;;;9.67;3.03;;;;;;;7.67;55.64;100925.03;5041462;28;20352;-43
2024/01/22 05:06:05;;;;;;;6.43;2.83;;;;;;;7.66;55.78;100915.47;5042874;28;20726;-44
2024/01/22 05:08:31;;;;;;;4.03;2.55;;;;;;;7.63;55.82;100893.75;5044065;28;20310;-45
2024/01/22 05:10:56;;;;;;;5.30;2.20;;;;;;;7.62;55.98;100899.91;5043655;28;20486;-43
2024/01/22 05:13:22;;;;;;;4.32;2.35;;;;;;;7.63;56.02;100883.28;5043777;28;20287;-45
2024/01/22 05:15:48;;;;;;;4.78;2.20;;;;;;;7.62;55.73;100878.94;5046241;28;20041;-47
2024/01/22 05:18:13;;;;;;;4.85;2.53;;;;;;;7.60;56.08;100861.56;5029605;28;20041;-45
2024/01/22 05:20:38;;;;;;;7.88;2.55;;;;;;;7.57;56.16;100848.63;5047981;28;20035;-45
2024/01/22 05:23:03;;;;;;;5.77;2.80;;;;;;;7.51;56.30;100822.72;5044582;28;20034;-44
2024/01/22 05:25:29;;;;;;;5.43;2.92;;;;;;;7.49;56.49;100788.72;5038284;28;20382;-45
2024/01/22 05:27:54;;;;;;;4.87;2.50;;;;;;;7.45;56.96;100774.09;5040777;28;20035;-45
2024/01/22 05:30:19;;;;;;;10.38;2.42;;;;;;;7.48;57.03;100773.97;5027998;28;20291;-46
2024/01/22 05:32:44;;;;;;;9.40;3.58;;;;;;;7.46;57.14;100760.91;5047500;28;20055;-46
2024/01/22 05:35:11;;;;;;;3.43;2.20;;;;;;;7.54;56.28;100751.88;5061583;28;20044;-46
2024/01/22 05:37:36;;;;;;;4.88;2.05;;;;;;;7.53;56.69;100737.94;5044376;28;20286;-46
2024/01/22 05:40:01;;;;;;;3.60;1.92;;;;;;;7.58;56.34;100732.47;5043642;28;20033;-45
2024/01/22 05:42:26;;;;;;;4.53;2.00;;;;;;;7.58;56.77;100732.47;5048946;28;20052;-45
2024/01/22 05:44:52;;;;;;;3.80;2.13;;;;;;;7.60;56.91;100726.28;5043317;28;20048;-45
2024/01/22 05:47:17;;;;;;;6.80;2.80;;;;;;;7.57;57.36;100775.28;5046958;28;20645;-46
2024/01/22 05:49:42;;;;;;;5.37;2.63;;;;;;;7.58;57.29;100763.91;5045306;28;20407;-46
2024/01/22 05:52:08;;;;;;;4.78;2.40;;;;;;;7.60;57.42;100764.69;5044620;28;20292;-45
2024/01/22 05:54:33;;;;;;;6.50;2.55;;;;;;;7.62;57.33;100760.22;5046957;28;20083;-45
2024/01/22 05:56:58;;;;;;;7.10;2.80;;;;;;;7.67;56.83;100712.88;5050046;28;20045;-45
2024/01/22 05:59:23;;;;;;;8.43;3.53;;;;;;;7.72;56.54;100708.28;5051768;28;20403;-45
2024/01/22 06:01:49;;;;;;;5.70;2.53;;;;;;;7.80;56.49;100679.94;5054090;28;20352;-47
2024/01/22 06:04:15;;;;;;;6.65;1.80;;;;;;;7.81;56.85;100718.31;5053677;28;20271;-45
2024/01/22 06:06:41;;;;;;;6.40;2.50;;;;;;;7.78;56.59;100718.50;5051803;28;20138;-45
2024/01/22 06:09:06;;;;;;;4.85;2.30;;;;;;;7.72;56.80;100724.84;5050125;28;20036;-45
2024/01/22 06:11:31;;;;;;;4.95;1.90;;;;;;;7.68;56.73;100719.81;5047633;28;20487;-45
2024/01/22 06:13:57;;;;;;;5.85;2.47;;;;;;;7.72;56.71;100709.13;5050735;28;20044;-45
2024/01/22 06:16:22;;;;;;;4.78;2.17;;;;;;;7.67;57.28;100707.63;5057532;28;20102;-45
2024/01/22 06:18:48;;;;;;;5.45;2.28;;;;;;;7.65;57.35;100725.19;5048554;28;20047;-44
2024/01/22 06:21:14;;;;;;;4.40;2.00;;;;;;;7.73;57.38;100726.53;5052522;28;20721;-45
2024/01/22 06:23:41;;;;;;;3.58;2.22;;;;;;;7.77;57.00;100724.66;5049768;28;20112;-44
2024/01/22 06:26:07;;;;;;;5.38;2.17;;;;;;;7.80;57.06;100719.25;5045720;28;20154;-44
2024/01/22 06:28:34;;;;;;;8.70;2.33;;;;;;;7.81;57.26;100707.84;5049144;28;20033;-46
2024/01/22 06:30:59;;;;;;;3.67;2.05;;;;;;;7.78;56.91;100710.63;5067333;28;20029;-48
2024/01/22 06:33:24;;;;;;;4.22;2.20;;;;;;;7.78;57.35;100703.59;5044248;28;20045;-45
2024/01/22 06:35:50;;;;;;;8.23;2.70;;;;;;;7.77;57.24;100688.81;5048914;28;20040;-46
2024/01/22 06:38:19;;;;;;;5.03;1.95;;;;;;;7.91;56.79;100680.31;5051145;28;20083;-47
2024/01/22 06:40:45;;;;;;;6.07;2.55;;;;;;;7.89;56.90;100684.78;5052820;28;20450;-46
2024/01/22 06:43:11;;;;;;;7.20;2.70;;;;;;;7.90;56.85;100689.09;5045791;28;20039;-46
2024/01/22 06:45:36;;;;;;;182.73;131.02;;;;;;;7.92;56.63;100679.41;5048278;28;20024;-49
2024/01/22 06:48:02;;;;;;;291.60;213.65;;;;;;;7.96;57.01;100677.47;5052965;28;20039;-48
2024/01/22 06:50:28;;;;;;;239.95;171.95;;;;;;;7.86;57.24;100653.47;5056739;28;20405;-44
2024/01/22 06:52:53;;;;;;;241.52;174.32;;;;;;;7.97;56.78;100676.53;5038833;28;20037;-46
2024/01/22 06:55:18;;;;;;;250.82;180.27;;;;;;;7.88;57.41;100666.47;5045773;28;20057;-44
2024/01/22 06:57:44;;;;;;;277.77;222.13;;;;;;;7.93;57.34;100657.50;5036573;28;20460;-44
2024/01/22 07:00:11;;;;;;;407.42;293.88;;;;;;;7.93;57.15;100665.38;5046164;28;20135;-46
2024/01/22 07:02:42;;;;;;;405.15;293.27;;;;;;;7.99;57.33;100673.84;5039852;28;20419;-45
2024/01/22 07:05:08;;;;;;;387.95;290.00;;;;;;;7.97;57.38;100666.06;5043671;28;20029;-46
2024/01/22 07:07:33;;;;;;;416.35;302.92;;;;;;;8.06;56.90;100675.25;5048626;28;20033;-46
2024/01/22 07:09:59;;;;;;;470.65;315.25;;;;;;;8.04;57.15;100671.84;5046127;28;20446;-47
2024/01/22 07:12:25;;;;;;;430.38;304.27;;;;;;;8.07;57.25;100671.72;5039270;28;20029;-47
2024/01/22 07:14:51;;;;;;;620.38;376.05;;;;;;;7.98;57.46;100664.28;5033604;28;20037;-47
2024/01/22 07:17:17;;;;;;;307.02;218.73;;;;;;;8.06;57.08;100649.88;5045068;28;20047;-47
2024/01/22 07:19:43;;;;;;;225.27;143.75;;;;;;;8.06;57.44;100643.81;5045643;28;20082;-46
2024/01/22 07:22:09;;;;;;;317.80;237.60;;;;;;;8.08;57.57;100631.47;5044738;28;20512;-47
2024/01/22 07:24:34;;;;;;;543.13;353.38;;;;;;;8.10;57.30;100624.38;5043247;28;20029;-47
2024/01/22 07:26:59;;;;;;;546.63;356.50;;;;;;;8.17;57.55;100625.78;5035120;28;20047;-45
2024/01/22 07:29:25;;;;;;;864.95;475.80;;;;;;;8.18;57.67;100619.63;5034025;28;20756;-47
2024/01/22 07:31:51;;;;;;;1242.38;587.03;;;;;;;8.18;57.88;100622.22;5045094;28;20032;-45
2024/01/22 07:34:16;;;;;;;1047.10;523.33;;;;;;;8.22;57.91;100605.44;5039155;28;20075;-45
2024/01/22 07:36:41;;;;;;;1277.28;583.90;;;;;;;8.23;58.14;100612.38;5044833;28;20051;-46
2024/01/22 07:39:07;;;;;;;462.85;323.08;;;;;;;8.27;57.83;100602.56;5047085;28;20029;-46
2024/01/22 07:41:33;;;;;;;563.38;356.45;;;;;;;8.30;57.96;100591.09;5046697;28;20034;-45
2024/01/22 07:43:59;;;;;;;662.42;399.40;;;;;;;8.41;57.83;100577.44;5041990;28;20052;-45
2024/01/22 07:46:24;;;;;;;632.15;387.23;;;;;;;8.51;57.56;100581.28;5031414;28;20124;-45
2024/01/22 07:48:49;;;;;;;546.60;360.55;;;;;;;8.46;58.01;100573.63;5045868;28;20036;-45
2024/01/22 07:51:14;;;;;;;567.70;370.80;;;;;;;8.50;57.73;100576.97;5045483;28;20411;-46
2024/01/22 07:53:40;;;;;;;408.60;298.88;;;;;;;8.51;58.29;100584.78;5041753;28;20079;-45
2024/01/22 07:56:05;;;;;;;392.40;275.65;;;;;;;8.57;58.08;100573.13;5043518;28;20068;-45
2024/01/22 07:58:30;;;;;;;531.13;342.63;;;;;;;8.64;57.88;100576.28;5038531;28;20062;-45
2024/01/22 08:00:56;;;;;;;3.80;1.30;;;;;;;8.78;57.86;100565.91;5047699;28;20045;-44
2024/01/22 08:03:22;;;;;;;8.87;4.53;;;;;;;8.83;58.21;100558.63;5046258;28;20749;-46
2024/01/22 08:05:47;;;;;;;4.15;0.85;;;;;;;8.76;58.13;100562.50;5044280;28;20287;-45
2024/01/22 08:08:13;;;;;;;5.75;2.45;;;;;;;8.91;57.66;100573.13;5045932;28;20509;-45
2024/01/22 08:10:38;;;;;;;7.68;4.95;;;;;;;8.88;57.48;100557.53;5042259;28;20044;-45
2024/01/22 08:13:03;;;;;;;3.45;1.15;;;;;;;9.03;57.41;100566.38;5041307;28;20032;-45
2024/01/22 08:15:29;;;;;;;4.80;2.17;;;;;;;9.10;57.13;100565.94;5045416;28;20539;-45
2024/01/22 08:17:55;;;;;;;3.15;0.55;;;;;;;9.09;57.07;100572.13;5045176;28;20029;-46
2024/01/22 08:20:21;;;;;;;4.90;3.80;;;;;;;9.07;57.42;100573.16;5043281;28;20437;-46
2024/01/22 08:22:46;;;;;;;4.90;4.15;;;;;;;9.21;56.97;100564.50;5045339;28;20032;-46
2024/01/22 08:25:17;;;;;;;11.27;9.68;;;;;;;9.26;57.15;100567.75;5041883;28;20471;-45
2024/01/22 08:27:44;;;;;;;4.70;3.90;;;;;;;9.34;57.08;100568.16;5034213;28;20093;-47
2024/01/22 08:30:10;;;;;;;4.95;2.47;;;;;;;9.42;57.45;100570.34;5046968;28;20032;-47
2024/01/22 08:32:36;;;;;;;6.53;5.20;;;;;;;9.41;58.30;100561.63;5049660;28;20497;-48
2024/01/22 08:35:02;;;;;;;4.23;2.03;;;;;;;9.43;58.64;100572.91;5043538;28;20479;-46
2024/01/22 08:37:27;;;;;;;6.18;5.53;;;;;;;9.40;58.83;100578.31;5043559;28;20341;-47
2024/01/22 08:39:53;;;;;;;4.80;2.53;;;;;;;9.37;59.19;100565.34;5048866;28;20488;-46
2024/01/22 08:42:18;;;;;;;6.30;4.18;;;;;;;9.35;59.80;100569.84;5048537;28;20295;-47
2024/01/22 08:44:43;;;;;;;3.63;1.83;;;;;;;9.31;60.29;100578.81;5051356;28;20059;-47
2024/01/22 08:47:09;;;;;;;3.95;1.23;;;;;;;9.26;60.53;100565.09;5047414;28;20108;-46
2024/01/22 08:49:34;;;;;;;4.18;2.88;;;;;;;9.29;61.15;100572.81;5046136;28;20151;-47
2024/01/22 08:51:59;;;;;;;4.50;2.72;;;;;;;9.26;61.81;100554.59;5048794;28;20075;-47
2024/01/22 08:54:24;;;;;;;4.10;3.23;;;;;;;9.30;61.76;100554.34;5047871;28;20040;-47
2024/01/22 08:56:50;;;;;;;4.05;2.90;;;;;;;9.29;61.90;100546.56;5052285;28;20287;-44
2024/01/22 08:59:15;;;;;;;4.03;2.90;;;;;;;9.21;63.02;100549.63;5043727;28;20025;-45
2024/01/22 09:01:41;;;;;;;4.83;3.30;;;;;;;9.21;63.63;100557.50;5049588;28;20324;-46
2024/01/22 09:04:07;;;;;;;4.75;3.50;;;;;;;9.25;63.82;100555.53;5043677;28;20284;-46
2024/01/22 09:06:32;;;;;;;4.80;2.67;;;;;;;9.26;64.35;100546.72;5046342;28;20052;-47
2024/01/22 09:08:58;;;;;;;3.70;1.67;;;;;;;9.32;64.52;100548.16;5050281;28;20409;-46
2024/01/22 09:11:23;;;;;;;4.35;2.88;;;;;;;9.22;65.10;100555.69;5050989;28;20041;-46
2024/01/22 09:13:48;;;;;;;5.10;3.80;;;;;;;9.20;65.63;100545.28;5048202;28;20033;-47
2024/01/22 09:16:14;;;;;;;8.27;6.65;;;;;;;9.22;65.96;100560.94;5049971;28;20494;-46
2024/01/22 09:18:42;;;;;;;4.85;3.92;;;;;;;9.29;66.05;100538.69;5050032;28;20036;-46
2024/01/22 09:21:08;;;;;;;4.57;1.52;;;;;;;9.08;67.35;100549.44;5048387;28;20014;-46
2024/01/22 09:23:33;;;;;;;5.32;4.25;;;;;;;9.02;65.91;100526.13;5043385;28;20036;-47
2024/01/22 09:25:59;;;;;;;31.48;5.68;;;;;;;9.14;67.07;100535.13;5050113;28;20031;-47
2024/01/22 09:28:30;;;;;;;6.18;4.68;;;;;;;8.99;67.37;100519.28;5053740;28;20460;-46
2024/01/22 09:30:58;;;;;;;4.85;3.97;;;;;;;8.97;68.13;100531.63;5050786;28;20037;-46
2024/01/22 09:33:25;;;;;;;5.45;4.75;;;;;;;9.02;68.18;100535.81;5049098;28;20501;-47
2024/01/22 09:35:51;;;;;;;6.07;4.53;;;;;;;9.08;68.06;100523.19;5047007;28;20041;-45
2024/01/22 09:38:17;;;;;;;4.68;3.85;;;;;;;9.17;67.88;100531.47;5050471;28;20052;-45
2024/01/22 09:40:42;;;;;;;12.15;4.50;;;;;;;9.02;68.12;100530.56;5038301;28;20110;-45
2024/01/22 09:43:08;;;;;;;7.68;2.63;;;;;;;9.13;68.03;100515.91;5036689;28;20847;-45
2024/01/22 09:45:34;;;;;;;4.75;3.40;;;;;;;9.18;67.63;100517.41;5045376;28;20024;-45
2024/01/22 09:48:00;;;;;;;4.63;3.28;;;;;;;9.29;67.41;100520.31;5049998;28;20395;-46
2024/01/22 09:50:25;;;;;;;5.03;3.60;;;;;;;9.25;68.02;100518.78;5048739;28;20447;-46
2024/01/22 09:52:52;;;;;;;5.20;4.13;;;;;;;9.33;67.51;100520.97;5042965;28;21816;-45
2024/01/22 09:55:18;;;;;;;5.45;4.13;;;;;;;9.32;67.79;100504.34;5047474;28;20028;-46
2024/01/22 09:57:46;;;;;;;5.03;3.95;;;;;;;9.39;67.33;100508.34;5051140;28;20821;-45
2024/01/22 10:00:14;;;;;;;5.97;4.38;;;;;;;9.38;67.17;100525.03;5045584;28;20619;-45
2024/01/22 10:02:40;;;;;;;10.02;7.63;;;;;;;9.30;67.47;100490.50;5021287;28;20052;-46
2024/01/22 10:05:07;;;;;;;4.88;3.88;;;;;;;9.53;66.99;100490.94;5028520;28;20476;-45
2024/01/22 10:07:32;;;;;;;5.97;3.92;;;;;;;9.48;66.75;100493.84;5048877;28;20041;-45
2024/01/22 10:09:58;;;;;;;5.05;3.35;;;;;;;9.53;67.38;100494.41;5030354;28;20040;-45
2024/01/22 10:12:23;;;;;;;6.22;4.25;;;;;;;9.59;67.09;100480.09;5049300;28;20028;-45
2024/01/22 10:14:48;;;;;;;5.18;3.45;;;;;;;9.72;66.73;100485.47;5046803;28;20079;-45
2024/01/22 10:17:18;;;;;;;5.13;3.43;;;;;;;9.86;66.15;100466.28;5046310;28;20487;-45
2024/01/22 10:19:45;;;;;;;5.45;3.75;;;;;;;9.90;65.81;100480.94;5046611;28;20283;-46
2024/01/22 10:22:10;;;;;;;5.80;3.90;;;;;;;9.70;66.19;100471.56;5049487;28;20867;-47
2024/01/22 10:24:35;;;;;;;5.78;4.15;;;;;;;9.77;65.70;100476.38;5054042;28;20033;-46
2024/01/22 10:27:27;;;;;;;6.10;4.88;;;;;;;9.89;65.65;100452.97;5054311;28;20040;-46
2024/01/22 10:30:07;;;;;;;12.98;7.03;;;;;;;10.01;65.22;100464.50;5047999;28;20156;-45
2024/01/22 10:32:33;;;;;;;8.45;7.00;;;;;;;9.96;64.98;100435.03;5042501;28;20078;-45
2024/01/22 10:34:58;;;;;;;6.30;4.93;;;;;;;10.09;64.90;100436.00;5048581;28;20029;-47
2024/01/22 10:37:24;;;;;;;7.90;7.35;;;;;;;10.07;64.66;100443.13;5029414;28;21532;-47
2024/01/22 10:40:00;;;;;;;7.05;6.53;;;;;;;10.01;64.82;100446.97;5052674;28;20515;-46
2024/01/22 10:42:26;;;;;;;7.93;7.35;;;;;;;10.17;64.36;100427.63;5041678;28;20027;-45
2024/01/22 10:44:52;;;;;;;8.88;7.15;;;;;;;10.18;64.32;100429.34;5047677;28;20029;-46
2024/01/22 10:47:18;;;;;;;7.85;6.45;;;;;;;10.17;64.07;100427.63;5045938;28;20052;-45
2024/01/22 10:49:44;;;;;;;5.47;4.40;;;;;;;10.24;63.95;100426.31;5049198;28;20063;-45
2024/01/22 10:52:10;;;;;;;6.38;5.47;;;;;;;10.19;63.93;100417.88;5050586;28;20037;-48
2024/01/22 10:54:37;;;;;;;5.78;5.13;;;;;;;10.39;63.14;100432.44;5046829;28;20426;-45
2024/01/22 10:57:09;;;;;;;6.85;4.88;;;;;;;10.35;63.50;100405.47;5051260;28;20525;-45
2024/01/22 10:59:37;;;;;;;8.00;5.85;;;;;;;10.39;63.18;100405.28;5053524;28;20530;-43
2024/01/22 11:02:06;;;;;;;6.03;4.47;;;;;;;10.44;62.87;100395.34;5047183;28;20068;-47
2024/01/22 11:04:34;;;;;;;0.35;0.22;;;;;;;10.52;62.72;100400.94;5045936;28;20025;-46
2024/01/22 11:07:01;;;;;;;0.30;0.22;;;;;;;10.50;62.79;100418.63;5046882;28;20036;-46
2024/01/22 11:09:36;;;;;;;1.70;1.60;;;;;;;10.55;62.45;100387.59;5044171;28;20418;-45
2024/01/22 11:12:08;;;;;;;0.10;0.10;;;;;;;10.62;62.13;100381.03;5038815;28;20103;-49
2024/01/22 11:14:36;;;;;;;0.73;0.40;;;;;;;10.67;61.98;100410.50;5041965;28;20501;-45
2024/01/22 11:17:02;;;;;;;4.25;3.85;;;;;;;10.70;61.98;100369.16;5028238;28;20029;-45
2024/01/22 11:19:28;;;;;;;7.35;6.13;;;;;;;10.64;61.61;100379.16;5045609;28;20029;-45
2024/01/22 11:21:54;;;;;;;4.63;4.30;;;;;;;10.66;61.66;100379.03;5042908;28;20035;-45